MGGT/GUA METAR and TAF weather

Enter ICAO airport designator
Station Type Date Time Source
MGGT METAR 2019/10/22 16:00 UTC NOAA

MGGT 221600Z 00000KT 9999 FEW012 BKN080 21/17 Q1025 A3027


Station Type Date Time Source
MGGT Decoded METAR 2019/10/22 16:00 UTC NOAA

Guatemala Aeropuertola Aurora , Guatemala (MGGT) 14-35N 090-31W 1489M
Oct 22, 2019 - 12:00 PM EDT / 2019.10.22 1600 UTC
Wind: Calm:0
Visibility: greater than 7 mile(s):0
Sky conditions: mostly cloudy
Temperature: 69 F (21 C)
Dew Point: 62 F (17 C)
Relative Humidity: 77%
Pressure (altimeter): 30.27 in. Hg (1025 hPa)
ob: MGGT 221600Z 00000KT 9999 FEW012 BKN080 21/17 Q1025 A3027
cycle: 16

Station Type Date Time Source
MGGT TAF 2019/10/22 12:56 UTC NOAA

TAF MGGT 221100Z 2212/2312 18006KT 8000 BKN014 TX25/2220Z TN16/2212Z
TEMPO 2212/2216 4000 BR SCT010
BECMG 2216/2218 16008KT SCT018
TEMPO 2218/2304 7000 TSRA SCT020TCU SCT025CB
BECMG 2300/2302 36006KT SCT018

Example: see airport list